createdAt,value
2022-09-29T00:00:31.082Z,7.16
2022-09-29T00:01:28.750Z,7.17
2022-09-29T00:02:28.633Z,7.16
2022-09-29T00:03:28.630Z,7.16
2022-09-29T00:04:28.518Z,7.20
2022-09-29T00:05:28.454Z,7.21
2022-09-29T00:06:28.378Z,7.24
2022-09-29T00:07:28.323Z,7.24
2022-09-29T00:08:28.284Z,7.23
2022-09-29T00:09:28.194Z,7.23
2022-09-29T00:10:28.128Z,7.24
2022-09-29T00:11:28.059Z,7.23
2022-09-29T00:12:27.991Z,7.21
2022-09-29T00:13:27.916Z,7.20
2022-09-29T00:14:27.854Z,7.16
2022-09-29T00:15:27.809Z,7.17
2022-09-29T00:16:27.820Z,7.15
2022-09-29T00:17:27.681Z,7.13
2022-09-29T00:18:27.652Z,7.12
2022-09-29T00:19:27.530Z,7.13
2022-09-29T00:20:27.499Z,7.10
2022-09-29T00:21:27.415Z,7.10
2022-09-29T00:22:27.330Z,7.10
2022-09-29T00:23:27.297Z,7.10
2022-09-29T00:24:27.993Z,7.09
2022-09-29T00:25:27.152Z,7.06
2022-09-29T00:26:27.077Z,7.06
2022-09-29T00:27:27.013Z,7.03
2022-09-29T00:28:26.951Z,7.02
2022-09-29T00:29:26.885Z,7.02
2022-09-29T00:30:26.838Z,6.99
2022-09-29T00:31:26.867Z,6.98
2022-09-29T00:32:26.697Z,6.97
2022-09-29T00:33:26.575Z,6.94
2022-09-29T00:34:26.575Z,6.92
2022-09-29T00:35:26.504Z,6.91
2022-09-29T00:36:27.205Z,6.91
2022-09-29T00:37:26.361Z,6.88
2022-09-29T00:38:26.319Z,6.89
2022-09-29T00:39:26.268Z,6.89
2022-09-29T00:40:26.211Z,6.85
2022-09-29T00:41:26.129Z,6.85
2022-09-29T00:42:26.062Z,6.80
2022-09-29T00:43:25.976Z,6.79
2022-09-29T00:44:25.913Z,6.77
2022-09-29T00:45:25.911Z,6.76
2022-09-29T00:46:25.791Z,6.76
2022-09-29T00:47:25.717Z,6.76
2022-09-29T00:48:27.914Z,6.76
2022-09-29T00:49:25.595Z,6.76
2022-09-29T00:50:25.543Z,6.71
2022-09-29T00:51:25.462Z,6.71
2022-09-29T00:52:25.400Z,6.70
2022-09-29T00:53:25.344Z,6.70
2022-09-29T00:54:26.045Z,6.67
2022-09-29T00:55:25.209Z,6.64
2022-09-29T00:56:25.145Z,6.66
2022-09-29T00:57:25.062Z,6.66
2022-09-29T00:58:25.041Z,6.64
2022-09-29T00:59:24.937Z,6.66
2022-09-29T01:00:25.015Z,6.62
2022-09-29T01:01:24.881Z,6.66
2022-09-29T01:02:24.833Z,6.66
2022-09-29T01:03:24.689Z,6.67
2022-09-29T01:04:24.623Z,6.64
2022-09-29T01:05:24.568Z,6.64
2022-09-29T01:06:24.499Z,6.61
2022-09-29T01:07:24.434Z,6.61
2022-09-29T01:08:24.358Z,6.55
2022-09-29T01:09:24.297Z,6.55
2022-09-29T01:10:24.240Z,6.54
2022-09-29T01:11:24.174Z,6.52
2022-09-29T01:12:24.124Z,6.52
2022-09-29T01:13:24.028Z,6.52
2022-09-29T01:14:23.959Z,6.51
2022-09-29T01:15:23.922Z,6.51
2022-09-29T01:16:23.909Z,6.46
2022-09-29T01:17:23.776Z,6.41
2022-09-29T01:18:24.479Z,6.40
2022-09-29T01:19:23.656Z,6.38
2022-09-29T01:20:23.594Z,6.38
2022-09-29T01:21:23.540Z,6.36
2022-09-29T01:22:23.458Z,6.31
2022-09-29T01:23:23.383Z,6.30
2022-09-29T01:24:23.336Z,6.28
2022-09-29T01:25:23.246Z,6.28
2022-09-29T01:26:23.194Z,6.30
2022-09-29T01:27:23.135Z,6.31
2022-09-29T01:28:23.065Z,6.30
2022-09-29T01:29:23.002Z,6.30
2022-09-29T01:30:22.958Z,6.27
2022-09-29T01:31:22.943Z,6.27
2022-09-29T01:32:22.797Z,6.30
2022-09-29T01:33:22.748Z,6.30
2022-09-29T01:34:22.668Z,6.28
2022-09-29T01:35:22.621Z,6.28
2022-09-29T01:36:24.532Z,6.27
2022-09-29T01:37:22.476Z,6.28
2022-09-29T01:38:22.431Z,6.28
2022-09-29T01:39:22.338Z,6.30
2022-09-29T01:40:22.325Z,6.27
2022-09-29T01:41:22.208Z,6.25
2022-09-29T01:42:22.182Z,6.21
2022-09-29T01:43:22.109Z,6.19
2022-09-29T01:44:22.031Z,6.19
2022-09-29T01:45:21.981Z,6.15
2022-09-29T01:46:21.884Z,6.14
2022-09-29T01:47:21.822Z,6.15
2022-09-29T01:48:21.791Z,6.15
2022-09-29T01:49:21.694Z,6.17
2022-09-29T01:50:21.637Z,6.17
2022-09-29T01:51:21.578Z,6.17
2022-09-29T01:52:21.530Z,6.18
2022-09-29T01:53:21.446Z,6.18
2022-09-29T01:54:22.170Z,6.15
2022-09-29T01:55:21.311Z,6.15
2022-09-29T01:56:21.234Z,6.17
2022-09-29T01:57:21.174Z,6.17
2022-09-29T01:58:21.169Z,6.15
2022-09-29T01:59:21.040Z,6.15
2022-09-29T02:00:21.012Z,6.17
2022-09-29T02:01:21.013Z,6.17
2022-09-29T02:02:20.899Z,6.15
2022-09-29T02:03:20.795Z,6.15
2022-09-29T02:04:20.766Z,6.15
2022-09-29T02:05:20.665Z,6.15
2022-09-29T02:06:20.625Z,6.17
2022-09-29T02:07:20.522Z,6.18
2022-09-29T02:08:20.470Z,6.19
2022-09-29T02:09:20.401Z,6.19
2022-09-29T02:10:20.333Z,6.19
2022-09-29T02:11:20.282Z,6.19
2022-09-29T02:12:21.421Z,6.19
2022-09-29T02:13:20.148Z,6.19
2022-09-29T02:14:20.201Z,6.19
2022-09-29T02:15:20.001Z,6.19
2022-09-29T02:16:20.005Z,6.19
2022-09-29T02:17:19.957Z,6.21
2022-09-29T02:18:19.841Z,6.19
2022-09-29T02:19:19.774Z,6.19
2022-09-29T02:20:19.684Z,6.17
2022-09-29T02:21:19.651Z,6.17
2022-09-29T02:22:19.560Z,6.15
2022-09-29T02:23:19.484Z,6.15
2022-09-29T02:24:20.957Z,6.17
2022-09-29T02:25:19.388Z,6.15
2022-09-29T02:26:19.306Z,6.15
2022-09-29T02:27:19.252Z,6.15
2022-09-29T02:28:19.177Z,6.17
2022-09-29T02:29:19.115Z,6.17
2022-09-29T02:30:19.058Z,6.18
2022-09-29T02:31:19.040Z,6.18
2022-09-29T02:32:18.904Z,6.19
2022-09-29T02:33:18.838Z,6.19
2022-09-29T02:34:19.773Z,6.22
2022-09-29T02:35:18.721Z,6.22
2022-09-29T02:36:18.692Z,6.22
2022-09-29T02:37:18.573Z,6.28
2022-09-29T02:38:18.514Z,6.27
2022-09-29T02:39:18.463Z,6.28
2022-09-29T02:40:18.504Z,6.27
2022-09-29T02:41:18.327Z,6.28
2022-09-29T02:42:19.055Z,6.30
2022-09-29T02:43:18.203Z,6.28
2022-09-29T02:44:18.220Z,6.30
2022-09-29T02:45:18.068Z,6.28
2022-09-29T02:46:18.021Z,6.28
2022-09-29T02:47:17.939Z,6.27
2022-09-29T02:48:17.915Z,6.27
2022-09-29T02:49:17.814Z,6.30
2022-09-29T02:50:17.735Z,6.30
2022-09-29T02:51:17.664Z,6.30
2022-09-29T02:52:17.603Z,6.28
2022-09-29T02:53:17.555Z,6.30
2022-09-29T02:54:18.336Z,6.28
2022-09-29T02:55:17.424Z,6.30
2022-09-29T02:56:17.353Z,6.31
2022-09-29T02:57:17.293Z,6.30
2022-09-29T02:58:17.224Z,6.28
2022-09-29T02:59:17.159Z,6.30
2022-09-29T03:00:17.378Z,6.31
2022-09-29T03:01:17.062Z,6.31
2022-09-29T03:02:16.963Z,6.33
2022-09-29T03:03:16.948Z,6.36
2022-09-29T03:04:16.848Z,6.36
2022-09-29T03:05:16.766Z,6.34
2022-09-29T03:06:16.725Z,6.36
2022-09-29T03:07:16.627Z,6.34
2022-09-29T03:08:16.567Z,6.34
2022-09-29T03:09:16.518Z,6.36
2022-09-29T03:10:16.464Z,6.37
2022-09-29T03:11:16.375Z,6.34
2022-09-29T03:12:18.630Z,6.36
2022-09-29T03:13:16.250Z,6.36
2022-09-29T03:14:16.350Z,6.38
2022-09-29T03:15:16.124Z,6.36
2022-09-29T03:16:16.125Z,6.37
2022-09-29T03:17:15.980Z,6.37
2022-09-29T03:18:15.937Z,6.40
2022-09-29T03:19:15.851Z,6.43
2022-09-29T03:20:15.796Z,6.40
2022-09-29T03:21:15.732Z,6.38
2022-09-29T03:22:15.685Z,6.40
2022-09-29T03:23:15.593Z,6.36
2022-09-29T03:24:15.593Z,6.34
2022-09-29T03:25:15.477Z,6.34
2022-09-29T03:26:15.411Z,6.31
2022-09-29T03:27:15.348Z,6.31
2022-09-29T03:28:15.262Z,6.31
2022-09-29T03:29:15.211Z,6.30
2022-09-29T03:30:17.461Z,6.31
2022-09-29T03:31:15.113Z,6.31
2022-09-29T03:32:15.006Z,6.28
2022-09-29T03:33:14.954Z,6.28
2022-09-29T03:34:14.981Z,6.28
2022-09-29T03:35:14.826Z,6.27
2022-09-29T03:36:14.773Z,6.25
2022-09-29T03:37:14.684Z,6.25
2022-09-29T03:38:14.627Z,6.21
2022-09-29T03:39:14.586Z,6.25
2022-09-29T03:40:14.505Z,6.22
2022-09-29T03:41:14.428Z,6.22
2022-09-29T03:42:14.379Z,6.22
2022-09-29T03:43:14.348Z,6.25
2022-09-29T03:44:14.250Z,6.25
2022-09-29T03:45:14.198Z,6.25
2022-09-29T03:46:14.165Z,6.25
2022-09-29T03:47:14.039Z,6.27
2022-09-29T03:48:15.197Z,6.25
2022-09-29T03:49:13.915Z,6.27
2022-09-29T03:50:13.847Z,6.27
2022-09-29T03:51:13.790Z,6.27
2022-09-29T03:52:13.722Z,6.25
2022-09-29T03:53:13.672Z,6.25
2022-09-29T03:54:13.593Z,6.27
2022-09-29T03:55:13.516Z,6.28
2022-09-29T03:56:13.462Z,6.25
2022-09-29T03:57:13.399Z,6.28
2022-09-29T03:58:13.317Z,6.27
2022-09-29T03:59:13.270Z,6.30
2022-09-29T04:00:13.214Z,6.30
2022-09-29T04:01:13.232Z,6.31
2022-09-29T04:02:13.159Z,6.30
2022-09-29T04:03:13.001Z,6.31
2022-09-29T04:04:12.945Z,6.31
2022-09-29T04:05:12.881Z,6.33
2022-09-29T04:06:15.671Z,6.34
2022-09-29T04:07:12.753Z,6.37
2022-09-29T04:08:12.687Z,6.37
2022-09-29T04:09:12.606Z,6.37
2022-09-29T04:10:12.547Z,6.38
2022-09-29T04:11:12.488Z,6.38
2022-09-29T04:12:12.433Z,6.41
2022-09-29T04:13:15.470Z,6.41
2022-09-29T04:14:12.284Z,6.41
2022-09-29T04:15:12.223Z,6.43
2022-09-29T04:16:12.172Z,6.41
2022-09-29T04:17:12.102Z,6.40
2022-09-29T04:18:12.816Z,6.38
2022-09-29T04:19:11.994Z,6.37
2022-09-29T04:20:11.903Z,6.36
2022-09-29T04:21:11.829Z,6.34
2022-09-29T04:22:11.760Z,6.34
2022-09-29T04:23:11.701Z,6.31
2022-09-29T04:24:11.643Z,6.31
2022-09-29T04:25:11.568Z,6.33
2022-09-29T04:26:11.504Z,6.33
2022-09-29T04:27:11.440Z,6.31
2022-09-29T04:28:11.380Z,6.34
2022-09-29T04:29:11.326Z,6.34
2022-09-29T04:30:11.287Z,6.34
2022-09-29T04:31:11.276Z,6.36
2022-09-29T04:32:11.129Z,6.36
2022-09-29T04:33:11.049Z,6.38
2022-09-29T04:34:10.983Z,6.37
2022-09-29T04:35:10.928Z,6.38
2022-09-29T04:36:12.086Z,6.38
2022-09-29T04:37:10.808Z,6.40
2022-09-29T04:38:10.731Z,6.40
2022-09-29T04:39:10.677Z,6.41
2022-09-29T04:40:10.609Z,6.41
2022-09-29T04:41:10.565Z,6.41
2022-09-29T04:42:10.476Z,6.40
2022-09-29T04:43:10.404Z,6.40
2022-09-29T04:44:10.336Z,6.38
2022-09-29T04:45:10.306Z,6.38
2022-09-29T04:46:10.283Z,6.37
2022-09-29T04:47:10.143Z,6.37
2022-09-29T04:48:13.894Z,6.36
2022-09-29T04:49:10.016Z,6.36
2022-09-29T04:50:09.957Z,6.36
2022-09-29T04:51:09.900Z,6.37
2022-09-29T04:52:09.815Z,6.36
2022-09-29T04:53:09.772Z,6.34
2022-09-29T04:54:09.716Z,6.33
2022-09-29T04:55:09.571Z,6.31
2022-09-29T04:56:09.528Z,6.30
2022-09-29T04:57:09.456Z,6.31
2022-09-29T04:58:09.374Z,6.33
2022-09-29T04:59:09.310Z,6.31
2022-09-29T05:00:09.269Z,6.34
2022-09-29T05:01:09.300Z,6.34
2022-09-29T05:02:09.239Z,6.34
2022-09-29T05:03:09.060Z,6.36
2022-09-29T05:04:08.996Z,6.37
2022-09-29T05:05:08.938Z,6.37
2022-09-29T05:06:08.886Z,6.38
2022-09-29T05:07:08.798Z,6.40
2022-09-29T05:08:08.725Z,6.40
2022-09-29T05:09:08.676Z,6.41
2022-09-29T05:10:08.597Z,6.43
2022-09-29T05:11:08.549Z,6.43
2022-09-29T05:12:11.161Z,6.44
2022-09-29T05:13:08.407Z,6.44
2022-09-29T05:14:08.352Z,6.44
2022-09-29T05:15:08.287Z,6.44
2022-09-29T05:16:08.230Z,6.46
2022-09-29T05:17:08.153Z,6.46
2022-09-29T05:18:08.095Z,6.46
2022-09-29T05:19:08.036Z,6.46
2022-09-29T05:20:07.974Z,6.48
2022-09-29T05:21:27.044Z,6.44
2022-09-29T05:22:07.856Z,6.46
2022-09-29T05:23:07.841Z,6.46
2022-09-29T05:24:07.712Z,6.48
2022-09-29T05:25:07.634Z,6.48
2022-09-29T05:26:07.584Z,6.48
2022-09-29T05:27:07.517Z,6.48
2022-09-29T05:28:07.440Z,6.48
2022-09-29T05:29:07.388Z,6.49
2022-09-29T05:30:07.327Z,6.51
2022-09-29T05:31:07.290Z,6.52
2022-09-29T05:32:07.209Z,6.52
2022-09-29T05:33:07.128Z,6.55
2022-09-29T05:34:07.038Z,6.55
2022-09-29T05:35:06.977Z,6.55
2022-09-29T05:36:06.953Z,6.56
2022-09-29T05:37:06.851Z,6.56
2022-09-29T05:38:06.805Z,6.55
2022-09-29T05:39:06.728Z,6.55
2022-09-29T05:40:06.675Z,6.55
2022-09-29T05:41:06.608Z,6.55
2022-09-29T05:42:06.873Z,6.55
2022-09-29T05:43:06.475Z,6.55
2022-09-29T05:44:06.403Z,6.56
2022-09-29T05:45:06.670Z,6.56
2022-09-29T05:46:06.385Z,6.58
2022-09-29T05:47:06.217Z,6.59
2022-09-29T05:48:06.184Z,6.62
2022-09-29T05:49:06.082Z,6.67
2022-09-29T05:50:06.001Z,6.69
2022-09-29T05:51:05.953Z,6.69
2022-09-29T05:52:05.883Z,6.67
2022-09-29T05:53:05.821Z,6.70
2022-09-29T05:54:05.771Z,6.71
2022-09-29T05:55:05.690Z,6.73
2022-09-29T05:56:05.636Z,6.70
2022-09-29T05:57:05.664Z,6.74
2022-09-29T05:58:05.511Z,6.73
2022-09-29T05:59:05.433Z,6.74
2022-09-29T06:00:07.681Z,6.74
2022-09-29T06:01:05.376Z,6.74
2022-09-29T06:02:05.295Z,6.74
2022-09-29T06:03:06.213Z,6.77
2022-09-29T06:04:06.351Z,6.76
2022-09-29T06:05:06.895Z,6.76
2022-09-29T06:06:07.348Z,6.77
2022-09-29T06:07:04.925Z,6.77
2022-09-29T06:08:04.850Z,6.77
2022-09-29T06:09:04.784Z,6.77
2022-09-29T06:10:04.705Z,6.79
2022-09-29T06:11:04.651Z,6.77
2022-09-29T06:12:05.362Z,6.79
2022-09-29T06:13:04.518Z,6.77
2022-09-29T06:14:04.460Z,6.79
2022-09-29T06:15:04.394Z,6.81
2022-09-29T06:16:04.380Z,6.79
2022-09-29T06:17:04.270Z,6.79
2022-09-29T06:18:04.225Z,6.79
2022-09-29T06:19:04.173Z,6.76
2022-09-29T06:20:04.064Z,6.76
2022-09-29T06:21:04.013Z,6.73
2022-09-29T06:22:03.944Z,6.76
2022-09-29T06:23:03.878Z,6.76
2022-09-29T06:24:03.842Z,6.74
2022-09-29T06:25:03.752Z,6.76
2022-09-29T06:26:03.665Z,6.76
2022-09-29T06:27:03.600Z,6.76
2022-09-29T06:28:03.552Z,6.79
2022-09-29T06:29:03.494Z,6.80
2022-09-29T06:30:03.440Z,6.79
2022-09-29T06:31:03.365Z,6.79
2022-09-29T06:32:03.338Z,6.79
2022-09-29T06:33:03.255Z,6.79
2022-09-29T06:34:03.155Z,6.80
2022-09-29T06:35:03.082Z,6.81
2022-09-29T06:36:04.257Z,6.84
2022-09-29T06:37:02.973Z,6.84
2022-09-29T06:38:02.892Z,6.84
2022-09-29T06:39:02.849Z,6.84
2022-09-29T06:40:03.648Z,6.80
2022-09-29T06:41:02.781Z,6.85
2022-09-29T06:42:02.666Z,6.85
2022-09-29T06:43:02.572Z,6.85
2022-09-29T06:44:02.498Z,6.85
2022-09-29T06:45:02.468Z,6.85
2022-09-29T06:46:02.448Z,6.85
2022-09-29T06:47:02.320Z,6.87
2022-09-29T06:48:02.357Z,6.91
2022-09-29T06:49:02.188Z,6.91
2022-09-29T06:50:18.206Z,6.94
2022-09-29T06:51:09.662Z,6.98
2022-09-29T06:52:10.760Z,6.97
2022-09-29T06:53:04.614Z,6.97
2022-09-29T06:54:11.038Z,6.98
2022-09-29T06:55:01.802Z,6.98
2022-09-29T06:56:01.740Z,6.97
2022-09-29T06:57:01.663Z,6.97
2022-09-29T06:58:04.271Z,6.98
2022-09-29T06:59:01.548Z,6.99
2022-09-29T07:00:01.538Z,6.99
2022-09-29T07:01:01.424Z,6.98
2022-09-29T07:02:01.393Z,6.99
2022-09-29T07:03:01.269Z,7.03
2022-09-29T07:04:01.208Z,7.05
2022-09-29T07:05:01.155Z,7.07
2022-09-29T07:06:18.867Z,7.10
2022-09-29T07:07:01.034Z,7.13
2022-09-29T07:08:01.491Z,7.17
2022-09-29T07:09:00.898Z,7.20
2022-09-29T07:10:00.836Z,7.16
2022-09-29T07:11:00.770Z,7.15
2022-09-29T07:12:02.970Z,7.16
2022-09-29T07:13:00.625Z,7.15
2022-09-29T07:14:00.559Z,7.15
2022-09-29T07:15:00.516Z,7.16
2022-09-29T07:16:00.436Z,7.17
2022-09-29T07:17:00.362Z,7.17
2022-09-29T07:18:00.339Z,7.17
2022-09-29T07:19:00.257Z,7.16
2022-09-29T07:20:00.186Z,7.17
2022-09-29T07:21:00.104Z,7.17
2022-09-29T07:22:00.077Z,7.17
2022-09-29T07:22:59.982Z,7.17
2022-09-29T07:24:02.564Z,7.23
2022-09-29T07:24:59.859Z,7.28
2022-09-29T07:25:59.781Z,7.28
2022-09-29T07:26:59.731Z,7.30
2022-09-29T07:27:59.695Z,7.31
2022-09-29T07:29:00.160Z,7.31
2022-09-29T07:30:04.110Z,7.31
2022-09-29T07:31:10.746Z,7.31
2022-09-29T07:31:59.457Z,7.31
2022-09-29T07:33:02.282Z,7.32
2022-09-29T07:33:59.571Z,7.34
2022-09-29T07:34:59.203Z,7.32
2022-09-29T07:36:00.701Z,7.35
2022-09-29T07:36:59.067Z,7.35
2022-09-29T07:37:59.047Z,7.39
2022-09-29T07:38:58.957Z,7.40
2022-09-29T07:39:58.895Z,7.40
2022-09-29T07:40:58.881Z,7.43
2022-09-29T07:41:58.765Z,7.42
2022-09-29T07:42:58.695Z,7.43
2022-09-29T07:43:58.635Z,7.46
2022-09-29T07:44:58.567Z,7.48
2022-09-29T07:45:58.557Z,7.48
2022-09-29T07:46:58.426Z,7.49
2022-09-29T07:47:59.157Z,7.48
2022-09-29T07:48:58.305Z,7.48
2022-09-29T07:49:58.243Z,7.48
2022-09-29T07:50:58.167Z,7.48
2022-09-29T07:51:58.117Z,7.48
2022-09-29T07:52:58.049Z,7.50
2022-09-29T07:53:58.830Z,7.52
2022-09-29T07:54:57.914Z,7.53
2022-09-29T07:55:57.844Z,7.53
2022-09-29T07:56:57.793Z,7.55
2022-09-29T07:57:57.727Z,7.58
2022-09-29T07:58:57.655Z,7.60
2022-09-29T07:59:57.617Z,7.63
2022-09-29T08:00:57.573Z,7.68
2022-09-29T08:01:57.535Z,7.71
2022-09-29T08:02:57.399Z,7.75
2022-09-29T08:03:57.344Z,7.79
2022-09-29T08:05:01.411Z,7.80
2022-09-29T08:05:57.992Z,7.86
2022-09-29T08:06:57.146Z,7.89
2022-09-29T08:07:57.068Z,7.92
2022-09-29T08:09:04.060Z,7.93
2022-09-29T08:10:04.414Z,7.95
2022-09-29T08:10:56.893Z,7.97
2022-09-29T08:12:06.688Z,7.97
2022-09-29T08:12:56.767Z,8.01
2022-09-29T08:13:56.683Z,8.01
2022-09-29T08:14:56.628Z,8.02
2022-09-29T08:15:56.546Z,8.01
2022-09-29T08:16:56.582Z,8.01
2022-09-29T08:17:57.202Z,8.01
2022-09-29T08:18:56.383Z,8.00
2022-09-29T08:19:56.303Z,7.95
2022-09-29T08:20:58.782Z,7.90
2022-09-29T08:21:56.195Z,7.83
2022-09-29T08:22:56.119Z,7.79
2022-09-29T08:23:56.845Z,7.75
2022-09-29T08:24:56.014Z,7.75
2022-09-29T08:26:01.450Z,7.72
2022-09-29T08:26:55.870Z,7.71
2022-09-29T08:27:56.091Z,7.72
2022-09-29T08:29:05.034Z,7.79
2022-09-29T08:29:57.149Z,7.83
2022-09-29T08:30:55.607Z,7.86
2022-09-29T08:31:55.595Z,7.89
2022-09-29T08:32:56.153Z,7.95
2022-09-29T08:33:55.383Z,7.98
2022-09-29T08:34:55.365Z,8.01
2022-09-29T08:35:56.059Z,8.05
2022-09-29T08:36:55.223Z,8.08
2022-09-29T08:37:55.165Z,8.10
2022-09-29T08:38:55.088Z,8.12
2022-09-29T08:39:54.999Z,8.12
2022-09-29T08:40:54.993Z,8.18
2022-09-29T08:41:54.916Z,8.20
2022-09-29T08:42:54.815Z,8.23
2022-09-29T08:43:54.740Z,8.29
2022-09-29T08:44:56.474Z,8.33
2022-09-29T08:46:00.478Z,8.36
2022-09-29T08:47:06.505Z,8.36
2022-09-29T08:47:54.600Z,8.33
2022-09-29T08:48:58.357Z,8.34
2022-09-29T08:49:54.369Z,8.33
2022-09-29T08:50:54.303Z,8.30
2022-09-29T08:51:54.363Z,8.28
2022-09-29T08:52:54.171Z,8.28
2022-09-29T08:54:02.428Z,8.33
2022-09-29T08:54:54.048Z,8.34
2022-09-29T08:55:53.965Z,8.37
2022-09-29T08:56:53.905Z,8.38
2022-09-29T08:57:53.856Z,8.43
2022-09-29T08:58:53.773Z,8.45
2022-09-29T08:59:53.733Z,8.45
2022-09-29T09:00:53.703Z,8.47
2022-09-29T09:01:53.689Z,8.52
2022-09-29T09:02:56.716Z,8.56
2022-09-29T09:03:53.461Z,8.58
2022-09-29T09:04:53.391Z,8.59
2022-09-29T09:05:55.743Z,8.59
2022-09-29T09:06:53.290Z,8.59
2022-09-29T09:07:53.209Z,8.61
2022-09-29T09:08:53.167Z,8.62
2022-09-29T09:09:53.097Z,8.65
2022-09-29T09:10:52.997Z,8.70
2022-09-29T09:11:52.955Z,8.74
2022-09-29T09:12:52.870Z,8.80
2022-09-29T09:13:52.800Z,8.84
2022-09-29T09:14:52.745Z,8.91
2022-09-29T09:15:52.687Z,8.96
2022-09-29T09:16:52.688Z,9.05
2022-09-29T09:17:52.568Z,9.13
2022-09-29T09:18:52.559Z,9.18
2022-09-29T09:19:52.443Z,9.24
2022-09-29T09:20:52.377Z,9.31
2022-09-29T09:21:52.298Z,9.38
2022-09-29T09:22:52.244Z,9.43
2022-09-29T09:23:55.542Z,9.48
2022-09-29T09:24:52.106Z,9.57
2022-09-29T09:25:52.065Z,9.64
2022-09-29T09:26:52.004Z,9.69
2022-09-29T09:27:51.908Z,9.74
2022-09-29T09:28:51.858Z,9.78
2022-09-29T09:29:52.557Z,9.81
2022-09-29T09:30:51.796Z,9.89
2022-09-29T09:31:51.654Z,9.94
2022-09-29T09:32:51.581Z,10.02
2022-09-29T09:34:03.705Z,10.11
2022-09-29T09:34:51.460Z,10.20
2022-09-29T09:35:58.646Z,10.29
2022-09-29T09:37:01.616Z,10.30
2022-09-29T09:37:51.304Z,10.34
2022-09-29T09:38:51.205Z,10.41
2022-09-29T09:39:51.165Z,10.44
2022-09-29T09:40:51.066Z,10.47
2022-09-29T09:41:52.548Z,10.52
2022-09-29T09:42:50.941Z,10.52
2022-09-29T09:43:50.865Z,10.55
2022-09-29T09:44:50.802Z,10.63
2022-09-29T09:45:50.749Z,10.71
2022-09-29T09:46:50.697Z,10.85
2022-09-29T09:47:50.634Z,10.91
2022-09-29T09:48:50.547Z,10.92
2022-09-29T09:49:51.686Z,10.92
2022-09-29T09:50:50.910Z,10.88
2022-09-29T09:51:50.934Z,10.81
2022-09-29T09:52:50.289Z,10.76
2022-09-29T09:53:51.263Z,10.73
2022-09-29T09:54:50.158Z,10.71
2022-09-29T09:55:50.115Z,10.85
2022-09-29T09:56:50.046Z,11.06
2022-09-29T09:57:49.973Z,11.18
2022-09-29T09:58:49.934Z,11.39
2022-09-29T09:59:52.781Z,11.55
2022-09-29T10:00:49.812Z,11.75
2022-09-29T10:01:49.718Z,11.90
2022-09-29T10:02:49.706Z,12.07
2022-09-29T10:03:49.595Z,12.01
2022-09-29T10:04:49.528Z,11.99
2022-09-29T10:05:50.670Z,11.98
2022-09-29T10:06:49.385Z,11.94
2022-09-29T10:07:49.425Z,11.98
2022-09-29T10:08:49.264Z,12.10
2022-09-29T10:09:49.282Z,12.29
2022-09-29T10:10:58.221Z,12.38
2022-09-29T10:11:49.083Z,12.50
2022-09-29T10:12:49.016Z,12.65
2022-09-29T10:13:50.557Z,12.70
2022-09-29T10:14:50.882Z,12.71
2022-09-29T10:15:49.771Z,12.77
2022-09-29T10:16:49.013Z,12.83
2022-09-29T10:17:50.233Z,12.95
2022-09-29T10:18:48.666Z,13.08
2022-09-29T10:19:48.564Z,13.10
2022-09-29T10:20:48.504Z,13.22
2022-09-29T10:21:48.427Z,13.36
2022-09-29T10:22:51.109Z,13.33
2022-09-29T10:23:48.309Z,13.05
2022-09-29T10:24:48.255Z,12.90
2022-09-29T10:25:48.180Z,13.01
2022-09-29T10:26:48.111Z,13.05
2022-09-29T10:27:48.039Z,13.11
2022-09-29T10:28:47.976Z,13.19
2022-09-29T10:29:47.936Z,13.14
2022-09-29T10:30:47.942Z,13.19
2022-09-29T10:31:47.778Z,13.41
2022-09-29T10:32:47.736Z,13.59
2022-09-29T10:33:47.661Z,13.84
2022-09-29T10:34:47.608Z,14.04
2022-09-29T10:35:47.552Z,14.07
2022-09-29T10:36:47.461Z,14.10
2022-09-29T10:37:47.428Z,14.06
2022-09-29T10:38:47.350Z,13.95
2022-09-29T10:39:47.274Z,13.87
2022-09-29T10:40:47.208Z,13.95
2022-09-29T10:41:48.632Z,13.88
2022-09-29T10:42:47.106Z,13.91
2022-09-29T10:43:47.057Z,13.91
2022-09-29T10:44:46.971Z,14.02
2022-09-29T10:45:46.942Z,14.02
2022-09-29T10:46:46.846Z,13.91
2022-09-29T10:47:46.785Z,13.82
2022-09-29T10:48:46.708Z,13.75
2022-09-29T10:49:46.625Z,13.73
2022-09-29T10:50:46.674Z,13.70
2022-09-29T10:51:46.515Z,13.69
2022-09-29T10:52:46.435Z,13.70
2022-09-29T10:53:47.159Z,13.69
2022-09-29T10:54:46.317Z,13.63
2022-09-29T10:55:46.255Z,13.64
2022-09-29T10:56:46.928Z,13.60
2022-09-29T10:57:46.116Z,13.54
2022-09-29T10:59:00.035Z,13.59
2022-09-29T10:59:48.318Z,13.62
2022-09-29T11:00:45.939Z,13.64
2022-09-29T11:01:45.877Z,13.62
2022-09-29T11:02:45.833Z,13.67
2022-09-29T11:03:45.751Z,13.66
2022-09-29T11:04:45.694Z,13.55
2022-09-29T11:05:45.625Z,13.41
2022-09-29T11:06:45.544Z,13.19
2022-09-29T11:07:45.487Z,13.10
2022-09-29T11:08:45.458Z,13.11
2022-09-29T11:09:45.433Z,13.10
2022-09-29T11:10:45.295Z,13.19
2022-09-29T11:11:45.249Z,13.29
2022-09-29T11:12:45.195Z,13.45
2022-09-29T11:13:45.106Z,13.62
2022-09-29T11:14:45.076Z,13.69
2022-09-29T11:15:44.968Z,13.81
2022-09-29T11:16:44.947Z,13.85
2022-09-29T11:17:46.814Z,13.89
2022-09-29T11:18:44.788Z,13.92
2022-09-29T11:19:44.728Z,13.91
2022-09-29T11:20:44.663Z,13.89
2022-09-29T11:21:44.621Z,13.88
2022-09-29T11:22:44.518Z,13.87
2022-09-29T11:23:44.483Z,13.89
2022-09-29T11:24:44.389Z,13.96
2022-09-29T11:25:44.340Z,14.00
2022-09-29T11:26:44.281Z,14.09
2022-09-29T11:27:44.220Z,14.15
2022-09-29T11:28:44.142Z,14.14
2022-09-29T11:29:44.104Z,14.15
2022-09-29T11:30:44.074Z,14.12
2022-09-29T11:31:43.982Z,14.17
2022-09-29T11:32:43.899Z,14.07
2022-09-29T11:33:43.841Z,13.96
2022-09-29T11:34:43.763Z,13.91
2022-09-29T11:35:43.697Z,13.91
2022-09-29T11:36:43.624Z,13.79
2022-09-29T11:37:44.123Z,13.73
2022-09-29T11:38:43.497Z,13.63
2022-09-29T11:39:43.445Z,13.51
2022-09-29T11:40:43.395Z,13.45
2022-09-29T11:41:43.607Z,13.38
2022-09-29T11:42:43.234Z,13.30
2022-09-29T11:43:43.171Z,13.25
2022-09-29T11:44:43.111Z,13.23
2022-09-29T11:45:43.110Z,13.20
2022-09-29T11:46:42.994Z,13.20
2022-09-29T11:47:44.294Z,13.17
2022-09-29T11:48:42.850Z,13.15
2022-09-29T11:49:42.808Z,13.11
2022-09-29T11:50:42.739Z,13.11
2022-09-29T11:51:42.701Z,13.14
2022-09-29T11:52:42.613Z,13.20
2022-09-29T11:53:42.550Z,13.23
2022-09-29T11:54:42.485Z,13.30
2022-09-29T11:55:42.406Z,13.36
2022-09-29T11:56:42.346Z,13.45
2022-09-29T11:57:42.306Z,13.51
2022-09-29T11:58:42.230Z,13.60
2022-09-29T11:59:44.158Z,13.66
2022-09-29T12:00:42.087Z,13.78
2022-09-29T12:01:42.043Z,13.78
2022-09-29T12:02:42.092Z,13.79
2022-09-29T12:03:41.927Z,13.84
2022-09-29T12:04:41.833Z,13.91
2022-09-29T12:05:42.555Z,13.95
2022-09-29T12:06:41.699Z,14.03
2022-09-29T12:07:41.656Z,14.15
2022-09-29T12:08:41.593Z,14.17
2022-09-29T12:09:41.557Z,14.10
2022-09-29T12:10:41.461Z,14.06
2022-09-29T12:11:54.905Z,13.97
2022-09-29T12:12:41.378Z,13.89
2022-09-29T12:13:41.271Z,13.82
2022-09-29T12:14:41.451Z,13.73
2022-09-29T12:15:41.255Z,13.66
2022-09-29T12:16:41.144Z,13.59
2022-09-29T12:17:41.827Z,13.49
2022-09-29T12:18:40.944Z,13.41
2022-09-29T12:19:40.872Z,13.36
2022-09-29T12:20:40.805Z,13.28
2022-09-29T12:21:40.768Z,13.25
2022-09-29T12:22:44.252Z,13.23
2022-09-29T12:23:40.637Z,13.15
2022-09-29T12:24:40.553Z,13.15
2022-09-29T12:25:40.496Z,13.19
2022-09-29T12:26:40.452Z,13.22
2022-09-29T12:27:40.360Z,13.26
2022-09-29T12:28:40.312Z,13.29
2022-09-29T12:29:40.263Z,13.38
2022-09-29T12:30:40.213Z,13.45
2022-09-29T12:31:40.101Z,13.51
2022-09-29T12:32:40.146Z,13.60
2022-09-29T12:33:40.017Z,13.66
2022-09-29T12:34:39.929Z,13.77
2022-09-29T12:35:40.646Z,13.85
2022-09-29T12:36:39.784Z,13.95
2022-09-29T12:37:39.719Z,14.03
2022-09-29T12:38:39.676Z,14.04
2022-09-29T12:39:39.602Z,14.06
2022-09-29T12:40:39.549Z,14.06
2022-09-29T12:41:41.776Z,14.06
2022-09-29T12:42:39.423Z,14.03
2022-09-29T12:43:39.351Z,14.00
2022-09-29T12:44:39.288Z,13.89
2022-09-29T12:45:39.209Z,13.81
2022-09-29T12:46:39.141Z,13.71
2022-09-29T12:47:39.125Z,13.62
2022-09-29T12:48:39.045Z,13.55
2022-09-29T12:49:38.964Z,13.49
2022-09-29T12:50:38.887Z,13.45
2022-09-29T12:51:38.838Z,13.39
2022-09-29T12:52:38.753Z,13.30
2022-09-29T12:53:39.038Z,13.30
2022-09-29T12:54:38.652Z,13.36
2022-09-29T12:55:38.561Z,13.32
2022-09-29T12:56:38.506Z,13.30
2022-09-29T12:57:38.488Z,13.30
2022-09-29T12:58:38.397Z,13.28
2022-09-29T12:59:38.338Z,13.29
2022-09-29T13:00:38.266Z,13.28
2022-09-29T13:01:38.225Z,13.29
2022-09-29T13:02:38.272Z,13.29
2022-09-29T13:03:38.069Z,13.28
2022-09-29T13:04:38.010Z,13.28
2022-09-29T13:05:39.927Z,13.26
2022-09-29T13:06:37.877Z,13.25
2022-09-29T13:07:37.824Z,13.25
2022-09-29T13:08:37.750Z,13.23
2022-09-29T13:09:37.730Z,13.23
2022-09-29T13:10:37.627Z,13.20